Time;durP1;ratioP1;P1;durP2;ratioP2;P2;SDS_P1;SDS_P2;PMS_P1;PMS_P2;Temp;Humidity;BMP_temperature;BMP_pressure;BME280_temperature;BME280_humidity;BME280_pressure;Samples;Min_cycle;Max_cycle;Signal;HPM_P1;HPM_P2
2021/08/27 00:00:41;;;;;;;8.10;4.97;;;;;;;;;;4992966;28;20506;-66
2021/08/27 00:03:07;;;;;;;8.80;5.10;;;;;;;;;;4992661;28;20519;-66
2021/08/27 00:05:33;;;;;;;6.13;4.60;;;;;;;;;;4993100;28;20799;-66
2021/08/27 00:07:59;;;;;;;11.07;5.67;;;;;;;;;;4993773;28;20405;-66
2021/08/27 00:10:25;;;;;;;7.80;4.57;;;;;;;;;;4992884;28;20435;-66
2021/08/27 00:12:52;;;;;;;10.20;5.80;;;;;;;;;;4994180;28;20784;-66
2021/08/27 00:15:18;;;;;;;9.20;5.10;;;;;;;;;;4992982;28;20976;-66
2021/08/27 00:17:44;;;;;;;7.87;4.63;;;;;;;;;;4992433;28;20413;-66
2021/08/27 00:20:10;;;;;;;9.70;4.77;;;;;;;;;;4993422;28;20411;-66
2021/08/27 00:22:37;;;;;;;9.40;5.57;;;;;;;;;;4994081;28;20857;-66
2021/08/27 00:25:03;;;;;;;6.67;4.70;;;;;;;;;;4992754;28;20404;-67
2021/08/27 00:27:29;;;;;;;8.70;5.20;;;;;;;;;;4996755;28;20397;-66
2021/08/27 00:29:56;;;;;;;9.33;5.70;;;;;;;;;;4999837;28;20392;-68
2021/08/27 00:32:22;;;;;;;10.80;5.37;;;;;;;;;;4999136;28;20470;-66
2021/08/27 00:34:48;;;;;;;7.83;4.97;;;;;;;;;;4997398;28;20408;-66
2021/08/27 00:37:14;;;;;;;9.17;4.60;;;;;;;;;;4996722;28;20482;-66
2021/08/27 00:39:40;;;;;;;11.13;5.63;;;;;;;;;;4997352;28;20404;-66
2021/08/27 00:42:06;;;;;;;10.07;6.13;;;;;;;;;;4995962;28;20478;-66
2021/08/27 00:44:32;;;;;;;8.60;5.00;;;;;;;;;;4997336;28;20894;-66
2021/08/27 00:46:58;;;;;;;6.83;5.03;;;;;;;;;;4996196;28;20925;-66
2021/08/27 00:49:24;;;;;;;9.67;5.97;;;;;;;;;;4997099;28;20400;-66
2021/08/27 00:51:50;;;;;;;15.00;6.47;;;;;;;;;;4994823;28;20913;-66
2021/08/27 00:54:17;;;;;;;8.70;5.70;;;;;;;;;;4997093;28;20487;-66
2021/08/27 00:56:43;;;;;;;9.10;6.30;;;;;;;;;;4996177;28;20436;-66
2021/08/27 00:59:10;;;;;;;7.70;5.20;;;;;;;;;;4996944;28;20397;-66
2021/08/27 01:01:36;;;;;;;8.90;5.90;;;;;;;;;;4996002;28;20459;-66
2021/08/27 01:04:02;;;;;;;8.70;5.13;;;;;;;;;;4996873;28;20419;-66
2021/08/27 01:06:49;;;;;;;7.73;5.20;;;;;;;;;;4993761;28;20773;-66
2021/08/27 01:09:22;;;;;;;6.43;4.97;;;;;;;;;;4996011;28;20511;-66
2021/08/27 01:11:52;;;;;;;6.77;4.60;;;;;;;;;;4996030;28;20591;-66
2021/08/27 01:14:31;;;;;;;10.20;4.87;;;;;;;;;;4996967;28;20401;-66
2021/08/27 01:17:03;;;;;;;9.77;4.73;;;;;;;;;;4993821;28;20440;-66
2021/08/27 01:19:47;;;;;;;9.37;5.60;;;;;;;;;;4985751;28;20409;-66
2021/08/27 01:22:32;;;;;;;6.70;4.87;;;;;;;;;;4994684;28;20976;-66
2021/08/27 01:24:59;;;;;;;8.70;5.17;;;;;;;;;;4996512;28;20401;-66
2021/08/27 01:27:26;;;;;;;12.23;5.73;;;;;;;;;;4995855;28;20427;-66
2021/08/27 01:29:55;;;;;;;8.97;6.03;;;;;;;;;;4996663;28;20427;-66
2021/08/27 01:32:22;;;;;;;9.00;4.97;;;;;;;;;;4995274;28;20475;-66
2021/08/27 01:34:50;;;;;;;8.00;5.30;;;;;;;;;;4996354;28;20400;-66
2021/08/27 01:37:19;;;;;;;9.80;5.60;;;;;;;;;;4994233;28;20432;-66
2021/08/27 01:39:55;;;;;;;8.37;4.87;;;;;;;;;;4996219;28;20419;-66
2021/08/27 01:42:24;;;;;;;8.90;5.53;;;;;;;;;;4994220;28;20529;-66
2021/08/27 01:44:50;;;;;;;11.43;5.47;;;;;;;;;;4996388;28;20439;-66
2021/08/27 01:47:18;;;;;;;9.40;5.33;;;;;;;;;;4995169;28;20434;-66
2021/08/27 01:49:45;;;;;;;8.20;4.70;;;;;;;;;;4996080;28;20488;-66
2021/08/27 01:52:11;;;;;;;7.67;5.30;;;;;;;;;;4993867;28;20464;-66
2021/08/27 01:54:38;;;;;;;8.93;4.47;;;;;;;;;;4995948;28;20412;-66
2021/08/27 01:57:04;;;;;;;7.37;4.97;;;;;;;;;;4995275;28;20468;-66
2021/08/27 01:59:33;;;;;;;8.40;5.00;;;;;;;;;;4994708;28;20988;-66
2021/08/27 02:01:59;;;;;;;7.00;4.90;;;;;;;;;;4995131;28;20981;-66
2021/08/27 02:04:26;;;;;;;6.00;4.23;;;;;;;;;;4994632;28;20440;-66
2021/08/27 02:06:52;;;;;;;7.43;5.20;;;;;;;;;;4994605;28;20459;-66
2021/08/27 02:09:18;;;;;;;9.20;5.57;;;;;;;;;;4995899;28;20401;-66
2021/08/27 02:11:45;;;;;;;9.13;5.03;;;;;;;;;;4994585;28;20991;-66
2021/08/27 02:14:11;;;;;;;7.40;4.50;;;;;;;;;;4995629;28;20416;-66
2021/08/27 02:16:37;;;;;;;7.60;5.30;;;;;;;;;;4994794;28;20917;-66
2021/08/27 02:19:04;;;;;;;18.30;5.77;;;;;;;;;;4995531;28;20489;-66
2021/08/27 02:21:31;;;;;;;9.23;7.43;;;;;;;;;;4994826;28;20459;-66
2021/08/27 02:23:58;;;;;;;9.87;6.40;;;;;;;;;;4995680;28;20405;-66
2021/08/27 02:26:25;;;;;;;10.43;5.73;;;;;;;;;;4992169;28;20946;-66
2021/08/27 02:28:51;;;;;;;9.73;5.33;;;;;;;;;;4995549;28;20412;-66
2021/08/27 02:31:17;;;;;;;11.23;6.37;;;;;;;;;;4994568;28;20904;-67
2021/08/27 02:33:44;;;;;;;10.47;5.90;;;;;;;;;;4995432;28;20435;-66
2021/08/27 02:36:12;;;;;;;14.10;6.23;;;;;;;;;;4995217;28;20905;-67
2021/08/27 02:38:39;;;;;;;11.20;7.17;;;;;;;;;;4994904;28;20417;-66
2021/08/27 02:41:05;;;;;;;12.17;6.37;;;;;;;;;;4995318;28;20463;-67
2021/08/27 02:43:31;;;;;;;11.07;6.93;;;;;;;;;;4993761;28;20449;-67
2021/08/27 02:45:57;;;;;;;13.90;7.90;;;;;;;;;;4995077;28;20459;-67
2021/08/27 02:48:23;;;;;;;15.37;7.27;;;;;;;;;;4991530;28;20445;-68
2021/08/27 02:51:01;;;;;;;11.13;7.57;;;;;;;;;;4984329;28;20462;-67
2021/08/27 02:53:32;;;;;;;12.73;7.87;;;;;;;;;;4992178;28;20463;-67
2021/08/27 02:56:13;;;;;;;13.00;8.80;;;;;;;;;;4995033;28;20408;-68
2021/08/27 02:58:39;;;;;;;13.03;8.90;;;;;;;;;;4993965;28;20436;-68
2021/08/27 03:01:08;;;;;;;15.47;8.60;;;;;;;;;;4994859;28;20460;-68
2021/08/27 03:03:49;;;;;;;14.23;9.57;;;;;;;;;;4992449;28;20447;-68
2021/08/27 03:06:28;;;;;;;11.40;8.17;;;;;;;;;;4994800;28;20878;-68
2021/08/27 03:09:05;;;;;;;15.87;9.50;;;;;;;;;;4993232;28;20420;-68
2021/08/27 03:11:33;;;;;;;20.53;10.60;;;;;;;;;;4994031;28;20393;-68
2021/08/27 03:13:59;;;;;;;14.10;8.77;;;;;;;;;;4994560;28;20405;-68
2021/08/27 03:16:26;;;;;;;12.47;8.37;;;;;;;;;;4993974;28;20423;-68
2021/08/27 03:18:52;;;;;;;11.33;8.13;;;;;;;;;;4994479;28;20836;-68
2021/08/27 03:21:18;;;;;;;16.80;9.57;;;;;;;;;;4994540;28;20542;-68
2021/08/27 03:23:45;;;;;;;14.60;8.87;;;;;;;;;;4993619;28;20492;-68
2021/08/27 03:26:16;;;;;;;14.67;9.50;;;;;;;;;;4994419;28;20427;-68
2021/08/27 03:28:45;;;;;;;17.77;9.47;;;;;;;;;;4993373;28;20432;-67
2021/08/27 03:31:12;;;;;;;13.23;8.33;;;;;;;;;;4993439;28;20846;-68
2021/08/27 03:33:39;;;;;;;19.30;9.10;;;;;;;;;;4991453;28;20534;-68
2021/08/27 03:36:05;;;;;;;21.03;9.87;;;;;;;;;;4994093;28;20416;-68
2021/08/27 03:38:31;;;;;;;17.60;8.40;;;;;;;;;;4993219;28;20440;-67
2021/08/27 03:40:58;;;;;;;21.60;9.10;;;;;;;;;;4992790;28;20459;-67
2021/08/27 03:43:24;;;;;;;13.97;9.30;;;;;;;;;;4993077;28;20452;-67
2021/08/27 03:45:51;;;;;;;16.63;8.57;;;;;;;;;;4994181;28;20408;-68
2021/08/27 03:48:20;;;;;;;20.50;8.37;;;;;;;;;;4991490;28;20429;-68
2021/08/27 03:50:50;;;;;;;15.33;9.63;;;;;;;;;;4994009;28;20412;-67
2021/08/27 03:53:16;;;;;;;16.50;7.70;;;;;;;;;;4993317;28;20491;-67
2021/08/27 03:55:43;;;;;;;12.53;8.63;;;;;;;;;;4993920;28;20445;-67
2021/08/27 03:58:12;;;;;;;13.80;8.13;;;;;;;;;;4992899;28;20425;-67
2021/08/27 04:00:39;;;;;;;15.30;8.50;;;;;;;;;;4992746;28;20471;-68
2021/08/27 04:03:05;;;;;;;18.53;10.00;;;;;;;;;;4992897;28;20507;-67
2021/08/27 04:05:31;;;;;;;16.80;9.57;;;;;;;;;;4992496;28;20431;-67
2021/08/27 04:07:58;;;;;;;16.53;9.40;;;;;;;;;;4991700;28;20429;-67
2021/08/27 04:10:24;;;;;;;14.17;9.37;;;;;;;;;;4993927;28;20777;-67
2021/08/27 04:12:50;;;;;;;17.37;10.13;;;;;;;;;;4992649;28;20460;-68
2021/08/27 04:15:17;;;;;;;22.63;9.33;;;;;;;;;;4994372;28;20898;-68
2021/08/27 04:17:43;;;;;;;15.60;8.80;;;;;;;;;;4992613;28;20940;-68
2021/08/27 04:20:10;;;;;;;11.53;6.70;;;;;;;;;;4993628;28;20819;-68
2021/08/27 04:22:37;;;;;;;14.63;7.50;;;;;;;;;;4992735;28;20514;-68
2021/08/27 04:25:03;;;;;;;11.80;6.43;;;;;;;;;;4993531;28;20409;-68
2021/08/27 04:27:29;;;;;;;10.70;6.20;;;;;;;;;;4992951;28;20404;-68
2021/08/27 04:29:55;;;;;;;10.33;7.07;;;;;;;;;;4993464;28;20393;-68
2021/08/27 04:32:21;;;;;;;14.20;5.60;;;;;;;;;;4993609;28;20416;-68
2021/08/27 04:34:47;;;;;;;11.80;7.20;;;;;;;;;;4992520;28;20428;-68
2021/08/27 04:37:13;;;;;;;8.00;5.67;;;;;;;;;;4993692;28;20413;-68
2021/08/27 04:39:39;;;;;;;12.50;5.77;;;;;;;;;;4992693;28;20466;-68
2021/08/27 04:42:05;;;;;;;10.23;4.40;;;;;;;;;;4992727;28;20535;-68
2021/08/27 04:44:31;;;;;;;5.67;3.77;;;;;;;;;;4994413;28;20424;-68
2021/08/27 04:46:58;;;;;;;9.57;5.13;;;;;;;;;;4994405;28;20411;-68
2021/08/27 04:49:24;;;;;;;8.07;4.97;;;;;;;;;;4996633;28;20512;-68
2021/08/27 04:51:50;;;;;;;8.87;4.50;;;;;;;;;;4998007;28;20511;-68
2021/08/27 04:54:16;;;;;;;5.97;4.10;;;;;;;;;;4993259;28;20464;-68
2021/08/27 04:56:42;;;;;;;6.83;4.50;;;;;;;;;;4995690;28;20413;-68
2021/08/27 04:59:08;;;;;;;8.70;4.63;;;;;;;;;;4994412;28;20428;-68
2021/08/27 05:01:34;;;;;;;8.73;4.83;;;;;;;;;;4994868;28;20452;-68
2021/08/27 05:04:00;;;;;;;7.80;4.77;;;;;;;;;;4992369;28;20435;-68
2021/08/27 05:06:26;;;;;;;10.37;6.57;;;;;;;;;;4991936;28;20417;-67
2021/08/27 05:08:52;;;;;;;6.60;5.13;;;;;;;;;;4990749;28;20428;-68
2021/08/27 05:11:18;;;;;;;8.60;5.53;;;;;;;;;;4993396;28;20546;-67
2021/08/27 05:13:44;;;;;;;9.60;5.77;;;;;;;;;;4992069;28;20539;-67
2021/08/27 05:16:11;;;;;;;10.57;6.10;;;;;;;;;;4992751;28;20499;-67
2021/08/27 05:18:37;;;;;;;14.27;7.93;;;;;;;;;;4995522;28;20444;-67
2021/08/27 05:21:03;;;;;;;19.10;6.70;;;;;;;;;;4996362;28;20475;-67
2021/08/27 05:23:28;;;;;;;9.43;6.73;;;;;;;;;;4995472;28;20539;-68
2021/08/27 05:25:55;;;;;;;11.73;6.80;;;;;;;;;;4996430;28;20502;-68
2021/08/27 05:28:21;;;;;;;11.20;6.67;;;;;;;;;;4995560;28;20936;-68
2021/08/27 05:30:47;;;;;;;11.37;7.50;;;;;;;;;;4996321;28;20408;-68
2021/08/27 05:33:13;;;;;;;13.70;7.97;;;;;;;;;;4995364;28;20456;-68
2021/08/27 05:35:39;;;;;;;12.37;7.87;;;;;;;;;;4996575;28;20459;-68
2021/08/27 05:38:05;;;;;;;18.07;11.03;;;;;;;;;;4995267;28;20436;-68
2021/08/27 05:40:31;;;;;;;15.63;8.47;;;;;;;;;;4996123;28;20404;-68
2021/08/27 05:42:57;;;;;;;14.83;9.50;;;;;;;;;;4995491;28;20788;-68
2021/08/27 05:45:23;;;;;;;16.37;9.23;;;;;;;;;;4996162;28;20396;-68
2021/08/27 05:47:49;;;;;;;16.83;9.53;;;;;;;;;;4995804;28;20401;-69
2021/08/27 05:50:16;;;;;;;16.93;9.50;;;;;;;;;;4994512;28;20433;-68
2021/08/27 05:52:44;;;;;;;19.33;10.33;;;;;;;;;;4995800;28;20514;-68
2021/08/27 05:55:10;;;;;;;16.83;9.97;;;;;;;;;;4994899;28;20468;-68
2021/08/27 05:57:36;;;;;;;19.00;11.10;;;;;;;;;;4995982;28;20805;-68
2021/08/27 06:00:03;;;;;;;17.60;10.13;;;;;;;;;;4994690;28;20495;-68
2021/08/27 06:02:29;;;;;;;16.00;9.87;;;;;;;;;;4995545;28;20468;-68
2021/08/27 06:04:55;;;;;;;17.57;8.93;;;;;;;;;;4994756;28;20856;-68
2021/08/27 06:07:21;;;;;;;19.53;11.50;;;;;;;;;;4995670;28;20459;-68
2021/08/27 06:09:47;;;;;;;17.87;10.70;;;;;;;;;;4994754;28;20424;-68
2021/08/27 06:12:13;;;;;;;15.67;11.40;;;;;;;;;;4995730;28;20829;-68
2021/08/27 06:14:39;;;;;;;18.60;11.10;;;;;;;;;;4994817;28;20441;-68
2021/08/27 06:17:05;;;;;;;23.10;11.27;;;;;;;;;;4995758;28;20409;-68
2021/08/27 06:19:31;;;;;;;22.80;12.23;;;;;;;;;;4994675;28;20806;-68
2021/08/27 06:21:58;;;;;;;18.40;10.90;;;;;;;;;;4994348;28;20494;-68
2021/08/27 06:24:24;;;;;;;22.40;11.87;;;;;;;;;;4994229;28;20786;-67
2021/08/27 06:26:50;;;;;;;21.30;11.00;;;;;;;;;;4995113;28;20766;-67
2021/08/27 06:29:16;;;;;;;17.43;10.07;;;;;;;;;;4994608;28;20432;-67
2021/08/27 06:31:42;;;;;;;17.07;10.70;;;;;;;;;;4995321;28;20803;-67
2021/08/27 06:34:08;;;;;;;18.23;9.63;;;;;;;;;;4994375;28;20472;-67
2021/08/27 06:36:34;;;;;;;16.57;11.00;;;;;;;;;;4995084;28;20436;-67
2021/08/27 06:39:00;;;;;;;24.80;10.67;;;;;;;;;;4994149;28;20487;-67
2021/08/27 06:41:26;;;;;;;17.10;10.00;;;;;;;;;;4995038;28;20459;-67
2021/08/27 06:43:53;;;;;;;15.73;9.40;;;;;;;;;;4994137;28;20440;-67
2021/08/27 06:46:20;;;;;;;18.33;9.90;;;;;;;;;;4994658;28;20412;-67
2021/08/27 06:48:46;;;;;;;16.00;9.27;;;;;;;;;;4993699;28;20455;-67
2021/08/27 06:51:12;;;;;;;15.03;9.53;;;;;;;;;;4993946;28;20811;-67
2021/08/27 06:53:39;;;;;;;14.27;7.67;;;;;;;;;;4991615;28;20482;-66
2021/08/27 06:56:05;;;;;;;17.63;8.57;;;;;;;;;;4993725;28;20945;-66
2021/08/27 06:58:31;;;;;;;13.30;7.70;;;;;;;;;;4988868;28;20848;-66
2021/08/27 07:00:58;;;;;;;12.10;7.60;;;;;;;;;;4993793;28;20464;-66
2021/08/27 07:03:24;;;;;;;14.90;7.57;;;;;;;;;;4992559;28;20440;-67
2021/08/27 07:05:50;;;;;;;11.70;7.23;;;;;;;;;;4994240;28;20405;-66
2021/08/27 07:08:16;;;;;;;12.10;7.40;;;;;;;;;;4987977;28;20437;-67
2021/08/27 07:10:42;;;;;;;8.73;6.30;;;;;;;;;;4989273;28;20437;-66
2021/08/27 07:13:08;;;;;;;8.33;6.20;;;;;;;;;;4979309;28;20433;-67
2021/08/27 07:15:34;;;;;;;12.30;6.30;;;;;;;;;;4992315;28;20428;-66
2021/08/27 07:18:01;;;;;;;11.10;6.70;;;;;;;;;;4993085;28;20409;-66
2021/08/27 07:20:28;;;;;;;9.30;6.40;;;;;;;;;;4992443;28;20819;-67
2021/08/27 07:22:54;;;;;;;9.63;6.07;;;;;;;;;;4985744;28;20997;-67
2021/08/27 07:25:20;;;;;;;9.43;7.20;;;;;;;;;;4989689;28;20428;-67
2021/08/27 07:27:48;;;;;;;10.60;5.50;;;;;;;;;;4989370;28;20750;-66
2021/08/27 07:30:14;;;;;;;12.20;6.17;;;;;;;;;;4986881;28;20856;-66
2021/08/27 07:32:40;;;;;;;13.60;6.37;;;;;;;;;;4988400;28;20448;-66
2021/08/27 07:35:07;;;;;;;6.80;4.33;;;;;;;;;;4992737;28;20964;-65
2021/08/27 07:37:33;;;;;;;9.40;5.23;;;;;;;;;;4992202;28;20418;-66
2021/08/27 07:40:00;;;;;;;12.43;5.60;;;;;;;;;;4992079;28;20439;-66
2021/08/27 07:42:26;;;;;;;7.33;4.60;;;;;;;;;;4991172;28;21060;-67
2021/08/27 07:44:52;;;;;;;6.30;5.20;;;;;;;;;;4991456;28;21180;-67
2021/08/27 07:47:18;;;;;;;13.80;4.47;;;;;;;;;;4991728;28;20422;-67
2021/08/27 07:49:45;;;;;;;7.70;4.90;;;;;;;;;;4984470;28;20495;-67
2021/08/27 07:52:11;;;;;;;7.80;4.77;;;;;;;;;;4992724;28;20965;-68
2021/08/27 07:54:37;;;;;;;8.60;5.50;;;;;;;;;;4992268;28;20440;-67
2021/08/27 07:57:03;;;;;;;5.50;4.13;;;;;;;;;;4990912;28;20463;-67
2021/08/27 07:59:29;;;;;;;7.00;5.10;;;;;;;;;;4993441;28;20782;-67
2021/08/27 08:01:55;;;;;;;6.00;4.10;;;;;;;;;;4984872;28;20461;-68
2021/08/27 08:04:21;;;;;;;4.33;3.53;;;;;;;;;;4979463;28;20432;-69
2021/08/27 08:06:47;;;;;;;5.10;3.40;;;;;;;;;;4977904;28;20445;-68
2021/08/27 08:09:13;;;;;;;5.17;3.60;;;;;;;;;;4988287;28;20898;-68
2021/08/27 08:11:39;;;;;;;6.07;3.03;;;;;;;;;;4987031;28;20952;-68
2021/08/27 08:14:05;;;;;;;4.83;3.33;;;;;;;;;;4992796;28;20952;-68
2021/08/27 08:16:31;;;;;;;3.30;2.63;;;;;;;;;;4992929;28;20416;-69
2021/08/27 08:18:57;;;;;;;8.20;3.53;;;;;;;;;;4990054;28;20516;-66
2021/08/27 08:21:23;;;;;;;4.90;3.67;;;;;;;;;;4986845;28;20830;-66
2021/08/27 08:23:53;;;;;;;5.83;3.33;;;;;;;;;;4985869;28;20459;-66
2021/08/27 08:26:20;;;;;;;5.03;3.90;;;;;;;;;;4989253;28;20417;-65
2021/08/27 08:28:46;;;;;;;6.37;3.50;;;;;;;;;;4973563;28;20445;-66
2021/08/27 08:31:17;;;;;;;5.43;3.40;;;;;;;;;;4990318;28;20511;-67
2021/08/27 08:33:43;;;;;;;4.20;3.30;;;;;;;;;;4990120;28;20437;-67
2021/08/27 08:36:09;;;;;;;10.20;3.80;;;;;;;;;;4994809;28;20466;-66
2021/08/27 08:38:35;;;;;;;5.73;3.10;;;;;;;;;;4978897;28;20945;-66
2021/08/27 08:41:03;;;;;;;8.90;3.90;;;;;;;;;;4992396;28;20460;-65
2021/08/27 08:43:29;;;;;;;7.60;4.20;;;;;;;;;;4993261;28;20420;-65
2021/08/27 08:45:56;;;;;;;6.43;3.83;;;;;;;;;;4992733;28;20458;-65
2021/08/27 08:48:23;;;;;;;6.47;3.50;;;;;;;;;;4992930;28;20415;-65
2021/08/27 08:50:50;;;;;;;4.30;3.50;;;;;;;;;;4989776;28;20423;-66
2021/08/27 08:53:18;;;;;;;5.63;4.70;;;;;;;;;;4991593;28;20474;-65
2021/08/27 08:55:44;;;;;;;4.40;3.43;;;;;;;;;;4981766;28;20429;-65
2021/08/27 08:58:10;;;;;;;7.50;4.10;;;;;;;;;;4985171;28;20551;-67
2021/08/27 09:00:39;;;;;;;5.23;3.80;;;;;;;;;;4992613;28;20499;-65
2021/08/27 09:03:05;;;;;;;4.90;3.30;;;;;;;;;;4993821;28;20845;-67
2021/08/27 09:05:31;;;;;;;6.83;3.20;;;;;;;;;;4994419;28;20465;-66
2021/08/27 09:07:58;;;;;;;4.80;2.70;;;;;;;;;;4991651;28;20429;-65
2021/08/27 09:10:25;;;;;;;3.20;2.67;;;;;;;;;;4991794;28;20479;-66
2021/08/27 09:12:51;;;;;;;3.73;2.90;;;;;;;;;;4985363;28;20850;-66
2021/08/27 09:15:20;;;;;;;5.90;3.60;;;;;;;;;;4995184;28;20435;-66
2021/08/27 09:17:48;;;;;;;4.30;2.97;;;;;;;;;;4994827;28;20432;-66
2021/08/27 09:20:16;;;;;;;7.83;3.57;;;;;;;;;;4993513;28;20467;-66
2021/08/27 09:22:47;;;;;;;6.10;4.20;;;;;;;;;;4995666;28;20467;-66
2021/08/27 09:25:14;;;;;;;8.60;3.50;;;;;;;;;;4991783;28;20862;-66
2021/08/27 09:28:20;;;;;;;4.73;4.20;;;;;;;;;;4991264;28;20428;-66
2021/08/27 09:30:54;;;;;;;3.10;2.50;;;;;;;;;;4940578;29;20430;-65
2021/08/27 09:33:22;;;;;;;5.80;3.57;;;;;;;;;;4949359;29;20455;-66
2021/08/27 09:36:00;;;;;;;4.73;2.87;;;;;;;;;;4968382;28;21009;-65
2021/08/27 09:38:28;;;;;;;4.57;2.40;;;;;;;;;;4994745;28;20495;-66
2021/08/27 09:41:10;;;;;;;3.43;2.30;;;;;;;;;;4990624;28;20421;-65
2021/08/27 09:43:45;;;;;;;6.00;2.43;;;;;;;;;;4990654;28;20440;-67
2021/08/27 09:46:30;;;;;;;3.90;2.40;;;;;;;;;;4989351;28;20420;-66
2021/08/27 09:48:57;;;;;;;4.43;1.93;;;;;;;;;;4984691;28;20492;-66
2021/08/27 09:51:41;;;;;;;5.93;2.10;;;;;;;;;;4993378;28;20435;-65
2021/08/27 09:54:07;;;;;;;3.53;2.13;;;;;;;;;;4988333;28;20910;-66
2021/08/27 09:56:46;;;;;;;5.10;2.10;;;;;;;;;;4992018;28;20428;-66
2021/08/27 09:59:13;;;;;;;4.60;2.10;;;;;;;;;;4989500;28;20450;-66
2021/08/27 10:01:48;;;;;;;3.83;2.00;;;;;;;;;;4984330;28;20547;-65
2021/08/27 10:04:15;;;;;;;4.17;1.70;;;;;;;;;;4986524;28;20420;-66
2021/08/27 10:06:41;;;;;;;3.77;2.23;;;;;;;;;;4988954;28;20487;-66
2021/08/27 10:09:07;;;;;;;3.17;1.90;;;;;;;;;;4992545;28;20421;-66
2021/08/27 10:11:33;;;;;;;3.60;2.00;;;;;;;;;;4984573;28;20429;-67
2021/08/27 10:13:59;;;;;;;3.70;2.33;;;;;;;;;;4990747;28;20470;-65
2021/08/27 10:16:25;;;;;;;6.10;2.70;;;;;;;;;;4986979;28;20437;-66
2021/08/27 10:18:51;;;;;;;2.60;1.97;;;;;;;;;;4992761;28;20425;-66
2021/08/27 10:21:17;;;;;;;3.60;2.00;;;;;;;;;;4989862;28;20460;-66
2021/08/27 10:23:44;;;;;;;4.70;2.13;;;;;;;;;;4987823;28;20938;-66
2021/08/27 10:26:15;;;;;;;3.73;2.67;;;;;;;;;;4987660;28;20845;-66
2021/08/27 10:28:41;;;;;;;3.90;2.33;;;;;;;;;;4990491;28;20603;-66
2021/08/27 10:31:07;;;;;;;4.63;2.60;;;;;;;;;;4992759;28;20815;-65
2021/08/27 10:33:39;;;;;;;4.40;3.10;;;;;;;;;;4985844;28;20440;-67
2021/08/27 10:36:06;;;;;;;3.80;2.60;;;;;;;;;;4986006;28;20471;-65
2021/08/27 10:38:42;;;;;;;3.93;2.30;;;;;;;;;;4989225;28;20425;-65
2021/08/27 10:41:10;;;;;;;3.83;2.40;;;;;;;;;;4990257;28;20467;-65
2021/08/27 10:43:54;;;;;;;5.30;2.73;;;;;;;;;;4984094;28;20782;-65
2021/08/27 10:46:20;;;;;;;5.90;2.27;;;;;;;;;;4986861;28;20464;-66
2021/08/27 10:48:53;;;;;;;3.70;2.40;;;;;;;;;;4991525;28;20503;-65
2021/08/27 10:51:33;;;;;;;6.33;2.60;;;;;;;;;;4993442;28;20440;-65
2021/08/27 10:53:59;;;;;;;3.40;2.67;;;;;;;;;;4989173;28;20467;-65
2021/08/27 10:56:44;;;;;;;4.97;2.63;;;;;;;;;;4987762;28;20489;-65
2021/08/27 10:59:10;;;;;;;4.10;2.53;;;;;;;;;;4988861;28;20417;-65
2021/08/27 11:01:38;;;;;;;5.07;2.37;;;;;;;;;;4990208;28;20460;-65
2021/08/27 11:04:04;;;;;;;4.10;2.57;;;;;;;;;;4992004;28;20424;-66
2021/08/27 11:06:42;;;;;;;5.73;2.60;;;;;;;;;;4990781;28;20438;-66
2021/08/27 11:09:15;;;;;;;4.30;2.33;;;;;;;;;;4992072;28;20502;-65
2021/08/27 11:11:44;;;;;;;5.27;2.40;;;;;;;;;;5027278;23;20860;-81
2021/08/27 11:14:14;;;;;;;3.37;2.30;;;;;;;;;;5038274;28;20427;-81
2021/08/27 11:16:40;;;;;;;2.63;1.90;;;;;;;;;;5048809;28;20525;-81
2021/08/27 11:19:27;;;;;;;4.70;2.57;;;;;;;;;;5043972;28;20429;-80
2021/08/27 11:21:55;;;;;;;3.17;2.10;;;;;;;;;;5047322;28;20484;-79
2021/08/27 11:24:23;;;;;;;4.63;2.17;;;;;;;;;;5056843;28;20509;-79
2021/08/27 11:26:58;;;;;;;2.70;1.43;;;;;;;;;;5050971;28;20483;-81
2021/08/27 11:29:33;;;;;;;3.40;1.97;;;;;;;;;;5045220;28;20428;-80
2021/08/27 11:32:08;;;;;;;2.90;1.97;;;;;;;;;;5031659;28;20451;-80
2021/08/27 11:34:53;;;;;;;4.00;1.80;;;;;;;;;;5043047;28;20414;-81
2021/08/27 11:37:20;;;;;;;3.10;2.00;;;;;;;;;;5052739;28;20460;-79
2021/08/27 11:39:47;;;;;;;4.23;2.03;;;;;;;;;;5061382;28;20413;-79
2021/08/27 11:42:15;;;;;;;7.60;1.90;;;;;;;;;;5042522;28;20489;-80
2021/08/27 11:44:43;;;;;;;3.40;2.30;;;;;;;;;;5055750;28;20930;-81
2021/08/27 11:47:12;;;;;;;4.30;2.93;;;;;;;;;;5047620;28;20437;-80
2021/08/27 11:49:58;;;;;;;8.00;2.43;;;;;;;;;;5040450;28;20502;-79
2021/08/27 11:52:24;;;;;;;3.90;2.27;;;;;;;;;;5031958;28;20450;-80
2021/08/27 11:54:58;;;;;;;3.43;2.33;;;;;;;;;;5044403;28;20431;-81
2021/08/27 11:57:25;;;;;;;3.07;2.10;;;;;;;;;;5047170;28;20461;-79
2021/08/27 11:59:51;;;;;;;4.63;2.17;;;;;;;;;;5051627;28;20507;-80
2021/08/27 12:02:18;;;;;;;5.80;2.43;;;;;;;;;;5047004;28;20500;-82
2021/08/27 12:04:45;;;;;;;3.33;1.90;;;;;;;;;;5054396;28;20498;-80
2021/08/27 12:07:12;;;;;;;2.40;1.77;;;;;;;;;;5047051;28;20542;-80
2021/08/27 12:09:38;;;;;;;3.53;2.23;;;;;;;;;;5045388;28;20487;-80
2021/08/27 12:12:05;;;;;;;4.03;2.13;;;;;;;;;;5049651;28;20560;-80
2021/08/27 12:14:50;;;;;;;3.83;1.80;;;;;;;;;;5052676;28;20458;-79
2021/08/27 12:17:18;;;;;;;3.23;1.90;;;;;;;;;;5049547;28;20807;-81
2021/08/27 12:19:44;;;;;;;5.37;2.30;;;;;;;;;;5045617;28;20425;-80
2021/08/27 12:22:12;;;;;;;4.87;2.50;;;;;;;;;;5052566;28;20489;-80
2021/08/27 12:24:39;;;;;;;4.30;2.23;;;;;;;;;;5035752;28;20399;-80
2021/08/27 12:27:05;;;;;;;3.20;1.93;;;;;;;;;;5047608;28;20961;-80
2021/08/27 12:29:31;;;;;;;3.63;1.80;;;;;;;;;;5050442;28;20929;-79
2021/08/27 12:31:57;;;;;;;3.40;2.27;;;;;;;;;;5057588;28;20473;-81
2021/08/27 12:34:23;;;;;;;3.93;1.90;;;;;;;;;;5051932;28;20418;-80
2021/08/27 12:36:50;;;;;;;3.67;2.10;;;;;;;;;;5046500;28;20813;-81
2021/08/27 12:39:16;;;;;;;2.83;2.00;;;;;;;;;;5057509;28;20425;-79
2021/08/27 12:41:42;;;;;;;2.83;1.80;;;;;;;;;;5058627;28;20465;-79
2021/08/27 12:44:13;;;;;;;3.50;2.30;;;;;;;;;;5049473;28;20434;-80
2021/08/27 12:46:45;;;;;;;7.70;2.60;;;;;;;;;;5049996;28;20422;-80
2021/08/27 12:49:11;;;;;;;4.97;2.37;;;;;;;;;;5050447;28;20470;-81
2021/08/27 12:51:40;;;;;;;3.50;2.23;;;;;;;;;;5056493;28;20540;-78
2021/08/27 12:54:06;;;;;;;4.00;2.30;;;;;;;;;;5034382;28;20509;-80
2021/08/27 12:56:32;;;;;;;3.60;2.43;;;;;;;;;;5053619;28;20438;-80
2021/08/27 12:59:13;;;;;;;4.20;2.20;;;;;;;;;;5043226;28;20418;-80
2021/08/27 13:01:39;;;;;;;3.03;1.80;;;;;;;;;;5049268;28;20461;-79
2021/08/27 13:04:05;;;;;;;3.63;1.90;;;;;;;;;;5050074;28;20425;-80
2021/08/27 13:06:36;;;;;;;3.60;2.20;;;;;;;;;;5052964;28;20427;-80
2021/08/27 13:09:12;;;;;;;3.90;2.13;;;;;;;;;;5046191;28;20812;-80
2021/08/27 13:11:47;;;;;;;3.43;2.67;;;;;;;;;;5037531;28;20448;-78
2021/08/27 13:14:17;;;;;;;2.73;2.00;;;;;;;;;;5055383;28;20422;-80
2021/08/27 13:16:57;;;;;;;5.27;2.23;;;;;;;;;;5055674;28;20956;-80
2021/08/27 13:19:24;;;;;;;4.80;2.17;;;;;;;;;;5034815;28;20509;-79
2021/08/27 13:21:50;;;;;;;4.90;2.50;;;;;;;;;;5064120;28;20457;-82
2021/08/27 13:24:17;;;;;;;3.33;2.47;;;;;;;;;;5057008;28;20482;-84
2021/08/27 13:26:53;;;;;;;4.40;2.30;;;;;;;;;;5062459;28;20464;-79
2021/08/27 13:29:19;;;;;;;7.10;3.00;;;;;;;;;;5037405;28;20421;-80
2021/08/27 13:31:45;;;;;;;9.30;2.80;;;;;;;;;;5045127;28;20500;-79
2021/08/27 13:34:11;;;;;;;3.90;2.20;;;;;;;;;;5052642;28;20434;-79
2021/08/27 13:36:37;;;;;;;4.80;3.10;;;;;;;;;;5024067;28;20442;-80
2021/08/27 13:39:03;;;;;;;2.60;1.90;;;;;;;;;;5054016;28;20809;-79
2021/08/27 13:41:29;;;;;;;3.83;2.50;;;;;;;;;;5050347;28;20458;-81
2021/08/27 13:43:55;;;;;;;3.27;2.40;;;;;;;;;;5056226;28;20414;-81
2021/08/27 13:46:24;;;;;;;4.50;2.20;;;;;;;;;;5032990;28;20475;-82
2021/08/27 13:48:50;;;;;;;5.03;1.80;;;;;;;;;;5034535;28;20495;-80
2021/08/27 13:51:16;;;;;;;2.93;1.70;;;;;;;;;;5050280;28;20432;-82
2021/08/27 13:53:42;;;;;;;2.93;2.00;;;;;;;;;;5045955;28;20501;-81
2021/08/27 13:56:08;;;;;;;4.43;1.90;;;;;;;;;;5034383;28;20494;-80
2021/08/27 13:58:34;;;;;;;4.70;2.43;;;;;;;;;;5052639;28;20457;-80
2021/08/27 14:01:00;;;;;;;4.70;2.40;;;;;;;;;;5038862;28;20784;-80
2021/08/27 14:03:26;;;;;;;6.77;2.67;;;;;;;;;;5057011;28;20793;-79
2021/08/27 14:05:52;;;;;;;5.20;3.10;;;;;;;;;;5055894;28;20410;-80
2021/08/27 14:08:18;;;;;;;3.50;2.53;;;;;;;;;;5049886;28;20453;-81
2021/08/27 14:10:45;;;;;;;5.57;2.70;;;;;;;;;;5053228;28;20425;-79
2021/08/27 14:13:11;;;;;;;5.97;2.80;;;;;;;;;;5048929;28;20445;-79
2021/08/27 14:15:37;;;;;;;2.90;2.23;;;;;;;;;;5053069;28;20909;-80
2021/08/27 14:18:03;;;;;;;5.00;2.20;;;;;;;;;;5045929;28;20429;-79
2021/08/27 14:20:48;;;;;;;3.67;1.87;;;;;;;;;;5020796;28;20458;-80
2021/08/27 14:23:14;;;;;;;3.37;2.03;;;;;;;;;;5028303;28;20457;-81
2021/08/27 14:25:40;;;;;;;3.50;1.87;;;;;;;;;;5053067;28;20402;-81
2021/08/27 14:28:07;;;;;;;4.13;1.93;;;;;;;;;;5044088;28;20469;-80
2021/08/27 14:30:33;;;;;;;3.50;1.60;;;;;;;;;;5050242;28;20763;-79
2021/08/27 14:33:03;;;;;;;2.20;1.40;;;;;;;;;;5042810;28;20807;-80
2021/08/27 14:35:29;;;;;;;3.07;1.70;;;;;;;;;;5054188;28;20390;-80
2021/08/27 14:37:55;;;;;;;2.33;1.60;;;;;;;;;;5052466;28;20424;-79
2021/08/27 14:40:21;;;;;;;3.30;1.40;;;;;;;;;;5052725;28;20429;-79
2021/08/27 14:42:47;;;;;;;4.73;1.57;;;;;;;;;;5051321;28;20465;-79